sensor_id;sensor_type;location;lat;lon;timestamp;temperature;humidity
9403;DHT22;4741;49.834;10.740;2022-09-09T00:00:20;13.00;99.90
9403;DHT22;4741;49.834;10.740;2022-09-09T00:08:03;12.00;99.90
9403;DHT22;4741;49.834;10.740;2022-09-09T00:10:39;11.80;99.90
9403;DHT22;4741;49.834;10.740;2022-09-09T00:13:19;12.00;99.90
9403;DHT22;4741;49.834;10.740;2022-09-09T00:15:59;12.00;99.90
9403;DHT22;4741;49.834;10.740;2022-09-09T00:23:32;11.30;99.90
9403;DHT22;4741;49.834;10.740;2022-09-09T00:26:04;12.00;99.90
9403;DHT22;4741;49.834;10.740;2022-09-09T00:28:33;12.30;99.90
9403;DHT22;4741;49.834;10.740;2022-09-09T00:31:13;12.50;99.90
9403;DHT22;4741;49.834;10.740;2022-09-09T00:33:40;12.10;99.90
9403;DHT22;4741;49.834;10.740;2022-09-09T00:36:13;12.10;99.90
9403;DHT22;4741;49.834;10.740;2022-09-09T00:38:43;12.10;99.90
9403;DHT22;4741;49.834;10.740;2022-09-09T00:41:14;13.30;99.90
9403;DHT22;4741;49.834;10.740;2022-09-09T00:43:44;12.30;99.90
9403;DHT22;4741;49.834;10.740;2022-09-09T00:51:23;12.20;99.90
9403;DHT22;4741;49.834;10.740;2022-09-09T00:54:10;11.70;99.90
9403;DHT22;4741;49.834;10.740;2022-09-09T00:56:45;11.50;99.90
9403;DHT22;4741;49.834;10.740;2022-09-09T01:01:40;11.00;99.90
9403;DHT22;4741;49.834;10.740;2022-09-09T01:04:12;11.60;99.90
9403;DHT22;4741;49.834;10.740;2022-09-09T01:06:42;11.80;99.90
9403;DHT22;4741;49.834;10.740;2022-09-09T01:12:17;11.80;99.90
9403;DHT22;4741;49.834;10.740;2022-09-09T01:14:48;11.70;99.90
9403;DHT22;4741;49.834;10.740;2022-09-09T01:17:26;11.70;99.90
9403;DHT22;4741;49.834;10.740;2022-09-09T01:19:57;11.50;99.90
9403;DHT22;4741;49.834;10.740;2022-09-09T01:27:43;11.70;99.90
9403;DHT22;4741;49.834;10.740;2022-09-09T01:30:13;11.90;99.90
9403;DHT22;4741;49.834;10.740;2022-09-09T01:32:44;11.90;99.90
9403;DHT22;4741;49.834;10.740;2022-09-09T01:38:01;11.50;99.90
9403;DHT22;4741;49.834;10.740;2022-09-09T01:40:28;11.90;99.90
9403;DHT22;4741;49.834;10.740;2022-09-09T01:42:54;13.00;99.90
9403;DHT22;4741;49.834;10.740;2022-09-09T01:45:21;12.20;99.90
9403;DHT22;4741;49.834;10.740;2022-09-09T01:47:48;12.00;99.90
9403;DHT22;4741;49.834;10.740;2022-09-09T01:50:16;11.90;99.90
9403;DHT22;4741;49.834;10.740;2022-09-09T01:52:43;11.70;99.90
9403;DHT22;4741;49.834;10.740;2022-09-09T01:55:11;13.90;99.90
9403;DHT22;4741;49.834;10.740;2022-09-09T01:57:49;13.50;99.90
9403;DHT22;4741;49.834;10.740;2022-09-09T02:00:16;12.00;99.90
9403;DHT22;4741;49.834;10.740;2022-09-09T02:02:56;12.90;99.90
9403;DHT22;4741;49.834;10.740;2022-09-09T02:08:05;12.00;99.90
9403;DHT22;4741;49.834;10.740;2022-09-09T02:10:45;13.60;99.90
9403;DHT22;4741;49.834;10.740;2022-09-09T02:13:14;12.20;99.90
9403;DHT22;4741;49.834;10.740;2022-09-09T02:15:47;13.50;99.90
9403;DHT22;4741;49.834;10.740;2022-09-09T02:18:17;11.90;99.90
9403;DHT22;4741;49.834;10.740;2022-09-09T02:20:46;11.90;99.90
9403;DHT22;4741;49.834;10.740;2022-09-09T02:23:13;12.10;99.90
9403;DHT22;4741;49.834;10.740;2022-09-09T02:25:41;11.70;99.90
9403;DHT22;4741;49.834;10.740;2022-09-09T02:28:10;11.90;99.90
9403;DHT22;4741;49.834;10.740;2022-09-09T02:30:39;13.10;99.90
9403;DHT22;4741;49.834;10.740;2022-09-09T02:33:07;13.00;99.90
9403;DHT22;4741;49.834;10.740;2022-09-09T02:35:36;12.70;99.90
9403;DHT22;4741;49.834;10.740;2022-09-09T02:38:05;12.00;99.90
9403;DHT22;4741;49.834;10.740;2022-09-09T02:40:33;12.50;99.90
9403;DHT22;4741;49.834;10.740;2022-09-09T02:43:00;12.50;99.90
9403;DHT22;4741;49.834;10.740;2022-09-09T02:45:38;12.40;99.90
9403;DHT22;4741;49.834;10.740;2022-09-09T02:48:17;12.20;99.90
9403;DHT22;4741;49.834;10.740;2022-09-09T02:50:51;12.20;99.90
9403;DHT22;4741;49.834;10.740;2022-09-09T02:53:21;12.90;99.90
9403;DHT22;4741;49.834;10.740;2022-09-09T02:55:52;12.20;99.90
9403;DHT22;4741;49.834;10.740;2022-09-09T02:58:21;12.50;99.90
9403;DHT22;4741;49.834;10.740;2022-09-09T03:00:49;12.50;99.90
9403;DHT22;4741;49.834;10.740;2022-09-09T03:03:16;12.60;99.90
9403;DHT22;4741;49.834;10.740;2022-09-09T03:05:44;12.70;99.90
9403;DHT22;4741;49.834;10.740;2022-09-09T03:08:11;13.00;99.90
9403;DHT22;4741;49.834;10.740;2022-09-09T03:10:39;12.60;99.90
9403;DHT22;4741;49.834;10.740;2022-09-09T03:13:06;12.60;99.90
9403;DHT22;4741;49.834;10.740;2022-09-09T03:15:32;12.70;99.90
9403;DHT22;4741;49.834;10.740;2022-09-09T03:17:59;12.90;99.90
9403;DHT22;4741;49.834;10.740;2022-09-09T03:20:28;12.70;99.90
9403;DHT22;4741;49.834;10.740;2022-09-09T03:22:55;13.30;99.90
9403;DHT22;4741;49.834;10.740;2022-09-09T03:25:22;13.90;99.90
9403;DHT22;4741;49.834;10.740;2022-09-09T03:27:52;13.00;99.90
9403;DHT22;4741;49.834;10.740;2022-09-09T03:30:24;13.50;99.90
9403;DHT22;4741;49.834;10.740;2022-09-09T03:32:51;13.20;99.90
9403;DHT22;4741;49.834;10.740;2022-09-09T03:35:18;13.30;99.90
9403;DHT22;4741;49.834;10.740;2022-09-09T03:37:45;14.00;99.90
9403;DHT22;4741;49.834;10.740;2022-09-09T03:40:12;13.30;99.90
9403;DHT22;4741;49.834;10.740;2022-09-09T03:42:39;13.70;99.90
9403;DHT22;4741;49.834;10.740;2022-09-09T03:45:06;13.40;99.90
9403;DHT22;4741;49.834;10.740;2022-09-09T03:47:33;13.40;99.90
9403;DHT22;4741;49.834;10.740;2022-09-09T03:50:00;13.70;99.90
9403;DHT22;4741;49.834;10.740;2022-09-09T03:52:26;13.40;99.90
9403;DHT22;4741;49.834;10.740;2022-09-09T03:54:53;13.40;99.90
9403;DHT22;4741;49.834;10.740;2022-09-09T03:57:20;13.30;99.90
9403;DHT22;4741;49.834;10.740;2022-09-09T03:59:48;12.70;99.90
9403;DHT22;4741;49.834;10.740;2022-09-09T04:02:14;13.20;99.90
9403;DHT22;4741;49.834;10.740;2022-09-09T04:04:42;13.00;99.90
9403;DHT22;4741;49.834;10.740;2022-09-09T04:07:08;13.70;99.90
9403;DHT22;4741;49.834;10.740;2022-09-09T04:09:35;13.10;99.90
9403;DHT22;4741;49.834;10.740;2022-09-09T04:12:02;13.10;99.90
9403;DHT22;4741;49.834;10.740;2022-09-09T04:14:28;13.20;99.90
9403;DHT22;4741;49.834;10.740;2022-09-09T04:16:55;13.70;99.90
9403;DHT22;4741;49.834;10.740;2022-09-09T04:19:24;13.30;99.90
9403;DHT22;4741;49.834;10.740;2022-09-09T04:21:51;14.20;99.90
9403;DHT22;4741;49.834;10.740;2022-09-09T04:24:18;13.40;99.90
9403;DHT22;4741;49.834;10.740;2022-09-09T04:26:45;13.50;99.90
9403;DHT22;4741;49.834;10.740;2022-09-09T04:29:12;13.50;99.90
9403;DHT22;4741;49.834;10.740;2022-09-09T04:31:38;13.50;99.90
9403;DHT22;4741;49.834;10.740;2022-09-09T04:34:08;13.30;99.90
9403;DHT22;4741;49.834;10.740;2022-09-09T04:36:35;13.20;99.90
9403;DHT22;4741;49.834;10.740;2022-09-09T04:39:02;13.60;99.90
9403;DHT22;4741;49.834;10.740;2022-09-09T04:41:29;13.60;99.90
9403;DHT22;4741;49.834;10.740;2022-09-09T04:43:57;14.00;99.90
9403;DHT22;4741;49.834;10.740;2022-09-09T04:46:25;14.50;99.90
9403;DHT22;4741;49.834;10.740;2022-09-09T04:48:52;14.80;99.90
9403;DHT22;4741;49.834;10.740;2022-09-09T04:51:19;13.30;99.90
9403;DHT22;4741;49.834;10.740;2022-09-09T04:53:46;14.90;99.90
9403;DHT22;4741;49.834;10.740;2022-09-09T04:56:14;13.60;99.90
9403;DHT22;4741;49.834;10.740;2022-09-09T04:58:41;14.80;99.90
9403;DHT22;4741;49.834;10.740;2022-09-09T05:01:13;14.00;99.90
9403;DHT22;4741;49.834;10.740;2022-09-09T05:03:40;13.60;99.90
9403;DHT22;4741;49.834;10.740;2022-09-09T05:06:10;13.60;99.90
9403;DHT22;4741;49.834;10.740;2022-09-09T05:08:37;13.60;99.90
9403;DHT22;4741;49.834;10.740;2022-09-09T05:11:17;13.60;99.90
9403;DHT22;4741;49.834;10.740;2022-09-09T05:13:45;13.60;99.90
9403;DHT22;4741;49.834;10.740;2022-09-09T05:16:12;13.60;99.90
9403;DHT22;4741;49.834;10.740;2022-09-09T05:18:39;13.60;99.90
9403;DHT22;4741;49.834;10.740;2022-09-09T05:21:06;13.60;99.90
9403;DHT22;4741;49.834;10.740;2022-09-09T05:23:33;13.60;99.90
9403;DHT22;4741;49.834;10.740;2022-09-09T05:26:00;13.60;99.90
9403;DHT22;4741;49.834;10.740;2022-09-09T05:28:27;14.20;99.90
9403;DHT22;4741;49.834;10.740;2022-09-09T05:30:55;13.60;99.90
9403;DHT22;4741;49.834;10.740;2022-09-09T05:33:22;13.60;99.90
9403;DHT22;4741;49.834;10.740;2022-09-09T05:35:54;13.60;99.90
9403;DHT22;4741;49.834;10.740;2022-09-09T05:38:22;13.00;99.90
9403;DHT22;4741;49.834;10.740;2022-09-09T05:40:54;13.70;99.90
9403;DHT22;4741;49.834;10.740;2022-09-09T05:43:22;13.60;99.90
9403;DHT22;4741;49.834;10.740;2022-09-09T05:45:59;13.60;99.90
9403;DHT22;4741;49.834;10.740;2022-09-09T05:48:31;13.60;99.90
9403;DHT22;4741;49.834;10.740;2022-09-09T05:50:58;13.60;99.90
9403;DHT22;4741;49.834;10.740;2022-09-09T05:53:26;13.70;99.90
9403;DHT22;4741;49.834;10.740;2022-09-09T05:56:06;14.60;99.90
9403;DHT22;4741;49.834;10.740;2022-09-09T05:58:33;13.80;99.90
9403;DHT22;4741;49.834;10.740;2022-09-09T06:03:30;13.90;99.90
9403;DHT22;4741;49.834;10.740;2022-09-09T06:05:58;15.20;99.90
9403;DHT22;4741;49.834;10.740;2022-09-09T06:08:25;15.00;99.90
9403;DHT22;4741;49.834;10.740;2022-09-09T06:10:52;14.00;99.90
9403;DHT22;4741;49.834;10.740;2022-09-09T06:13:18;14.00;99.90
9403;DHT22;4741;49.834;10.740;2022-09-09T06:15:52;14.80;99.90
9403;DHT22;4741;49.834;10.740;2022-09-09T06:18:18;14.10;99.90
9403;DHT22;4741;49.834;10.740;2022-09-09T06:20:55;14.60;99.90
9403;DHT22;4741;49.834;10.740;2022-09-09T06:23:22;14.60;99.90
9403;DHT22;4741;49.834;10.740;2022-09-09T06:25:49;15.00;99.90
9403;DHT22;4741;49.834;10.740;2022-09-09T06:28:15;14.80;99.90
9403;DHT22;4741;49.834;10.740;2022-09-09T06:30:42;15.10;99.90
9403;DHT22;4741;49.834;10.740;2022-09-09T06:33:09;14.90;99.90
9403;DHT22;4741;49.834;10.740;2022-09-09T06:35:35;14.90;99.90
9403;DHT22;4741;49.834;10.740;2022-09-09T06:38:02;15.90;99.90
9403;DHT22;4741;49.834;10.740;2022-09-09T06:40:30;15.60;99.90
9403;DHT22;4741;49.834;10.740;2022-09-09T06:42:59;15.50;99.90
9403;DHT22;4741;49.834;10.740;2022-09-09T06:45:26;15.10;99.90
9403;DHT22;4741;49.834;10.740;2022-09-09T06:47:54;15.10;99.90
9403;DHT22;4741;49.834;10.740;2022-09-09T06:50:21;15.00;99.90
9403;DHT22;4741;49.834;10.740;2022-09-09T06:52:47;15.00;99.90
9403;DHT22;4741;49.834;10.740;2022-09-09T06:55:14;15.50;99.90
9403;DHT22;4741;49.834;10.740;2022-09-09T06:57:42;15.10;99.90
9403;DHT22;4741;49.834;10.740;2022-09-09T07:00:09;15.80;99.90
9403;DHT22;4741;49.834;10.740;2022-09-09T07:02:36;15.60;99.90
9403;DHT22;4741;49.834;10.740;2022-09-09T07:05:05;15.90;99.90
9403;DHT22;4741;49.834;10.740;2022-09-09T07:07:32;16.10;99.90
9403;DHT22;4741;49.834;10.740;2022-09-09T07:09:59;16.30;99.90
9403;DHT22;4741;49.834;10.740;2022-09-09T07:12:26;16.30;99.90
9403;DHT22;4741;49.834;10.740;2022-09-09T07:14:52;17.50;99.90
9403;DHT22;4741;49.834;10.740;2022-09-09T07:17:19;16.50;99.90
9403;DHT22;4741;49.834;10.740;2022-09-09T07:19:46;16.60;99.90
9403;DHT22;4741;49.834;10.740;2022-09-09T07:22:13;17.20;99.90
9403;DHT22;4741;49.834;10.740;2022-09-09T07:24:40;16.30;99.90
9403;DHT22;4741;49.834;10.740;2022-09-09T07:27:07;16.40;99.90
9403;DHT22;4741;49.834;10.740;2022-09-09T07:29:34;17.30;99.90
9403;DHT22;4741;49.834;10.740;2022-09-09T07:32:01;17.40;99.90
9403;DHT22;4741;49.834;10.740;2022-09-09T07:34:28;16.70;99.90
9403;DHT22;4741;49.834;10.740;2022-09-09T07:36:56;16.70;99.90
9403;DHT22;4741;49.834;10.740;2022-09-09T07:39:23;17.20;99.90
9403;DHT22;4741;49.834;10.740;2022-09-09T07:41:50;16.70;99.90
9403;DHT22;4741;49.834;10.740;2022-09-09T07:44:21;16.50;99.90
9403;DHT22;4741;49.834;10.740;2022-09-09T07:46:48;16.80;99.90
9403;DHT22;4741;49.834;10.740;2022-09-09T07:49:15;16.90;99.90
9403;DHT22;4741;49.834;10.740;2022-09-09T07:51:43;17.50;99.90
9403;DHT22;4741;49.834;10.740;2022-09-09T07:54:10;18.00;99.90
9403;DHT22;4741;49.834;10.740;2022-09-09T07:56:38;17.40;99.90
9403;DHT22;4741;49.834;10.740;2022-09-09T07:59:06;17.30;99.90
9403;DHT22;4741;49.834;10.740;2022-09-09T08:01:34;17.00;99.90
9403;DHT22;4741;49.834;10.740;2022-09-09T08:04:04;16.90;99.90
9403;DHT22;4741;49.834;10.740;2022-09-09T08:06:33;18.50;99.90
9403;DHT22;4741;49.834;10.740;2022-09-09T08:09:00;18.40;99.90
9403;DHT22;4741;49.834;10.740;2022-09-09T08:11:27;17.90;99.90
9403;DHT22;4741;49.834;10.740;2022-09-09T08:13:55;17.70;99.90
9403;DHT22;4741;49.834;10.740;2022-09-09T08:16:28;17.90;99.90
9403;DHT22;4741;49.834;10.740;2022-09-09T08:18:56;19.10;99.90
9403;DHT22;4741;49.834;10.740;2022-09-09T08:21:25;17.80;99.90
9403;DHT22;4741;49.834;10.740;2022-09-09T08:23:54;17.90;99.90
9403;DHT22;4741;49.834;10.740;2022-09-09T08:26:24;18.90;99.90
9403;DHT22;4741;49.834;10.740;2022-09-09T08:28:52;19.00;99.90
9403;DHT22;4741;49.834;10.740;2022-09-09T08:31:20;18.80;99.90
9403;DHT22;4741;49.834;10.740;2022-09-09T08:33:47;19.00;99.90
9403;DHT22;4741;49.834;10.740;2022-09-09T08:36:20;18.50;99.90
9403;DHT22;4741;49.834;10.740;2022-09-09T08:38:48;18.50;99.90
9403;DHT22;4741;49.834;10.740;2022-09-09T08:43:43;18.60;99.90
9403;DHT22;4741;49.834;10.740;2022-09-09T08:46:12;19.50;99.90
9403;DHT22;4741;49.834;10.740;2022-09-09T08:48:58;19.30;99.90
9403;DHT22;4741;49.834;10.740;2022-09-09T08:51:27;19.00;99.90
9403;DHT22;4741;49.834;10.740;2022-09-09T08:53:57;19.50;99.90
9403;DHT22;4741;49.834;10.740;2022-09-09T08:56:25;19.80;99.90
9403;DHT22;4741;49.834;10.740;2022-09-09T08:58:53;19.60;99.90
9403;DHT22;4741;49.834;10.740;2022-09-09T09:06:35;19.80;99.90
9403;DHT22;4741;49.834;10.740;2022-09-09T09:16:59;20.70;99.90
9403;DHT22;4741;49.834;10.740;2022-09-09T09:19:28;20.90;99.90
9403;DHT22;4741;49.834;10.740;2022-09-09T09:25:04;21.30;99.90
9403;DHT22;4741;49.834;10.740;2022-09-09T09:29:56;21.20;99.90
9403;DHT22;4741;49.834;10.740;2022-09-09T09:35:20;21.20;99.90
9403;DHT22;4741;49.834;10.740;2022-09-09T09:43:02;20.60;99.90
9403;DHT22;4741;49.834;10.740;2022-09-09T09:53:02;20.40;99.90
9403;DHT22;4741;49.834;10.740;2022-09-09T09:55:30;21.00;99.90
9403;DHT22;4741;49.834;10.740;2022-09-09T09:58:05;22.50;99.90
9403;DHT22;4741;49.834;10.740;2022-09-09T10:00:32;21.30;99.90
9403;DHT22;4741;49.834;10.740;2022-09-09T10:03:01;20.90;99.90
9403;DHT22;4741;49.834;10.740;2022-09-09T10:05:30;21.60;99.90
9403;DHT22;4741;49.834;10.740;2022-09-09T10:26:03;23.20;99.90
9403;DHT22;4741;49.834;10.740;2022-09-09T10:31:24;23.70;99.90
9403;DHT22;4741;49.834;10.740;2022-09-09T10:36:29;22.90;99.90
9403;DHT22;4741;49.834;10.740;2022-09-09T10:39:11;23.60;99.90
9403;DHT22;4741;49.834;10.740;2022-09-09T10:42:04;23.80;99.90
9403;DHT22;4741;49.834;10.740;2022-09-09T10:47:17;23.10;99.90
9403;DHT22;4741;49.834;10.740;2022-09-09T10:59:48;22.70;99.90
9403;DHT22;4741;49.834;10.740;2022-09-09T11:04:50;24.60;99.90
9403;DHT22;4741;49.834;10.740;2022-09-09T11:07:32;25.10;99.90
9403;DHT22;4741;49.834;10.740;2022-09-09T11:10:02;24.90;99.90
9403;DHT22;4741;49.834;10.740;2022-09-09T11:32:48;24.30;99.90
9403;DHT22;4741;49.834;10.740;2022-09-09T11:42:31;23.70;99.90
9403;DHT22;4741;49.834;10.740;2022-09-09T11:45:07;23.90;99.90
9403;DHT22;4741;49.834;10.740;2022-09-09T11:47:35;23.70;99.90
9403;DHT22;4741;49.834;10.740;2022-09-09T11:52:39;22.70;99.90
9403;DHT22;4741;49.834;10.740;2022-09-09T11:57:36;21.50;99.90
9403;DHT22;4741;49.834;10.740;2022-09-09T12:02:30;21.50;99.90
9403;DHT22;4741;49.834;10.740;2022-09-09T12:07:33;21.00;99.90
9403;DHT22;4741;49.834;10.740;2022-09-09T12:12:36;20.80;99.90
9403;DHT22;4741;49.834;10.740;2022-09-09T12:17:46;20.40;99.90
9403;DHT22;4741;49.834;10.740;2022-09-09T12:20:17;20.30;99.90
9403;DHT22;4741;49.834;10.740;2022-09-09T12:25:20;19.90;99.90
9403;DHT22;4741;49.834;10.740;2022-09-09T12:27:54;19.50;99.90
9403;DHT22;4741;49.834;10.740;2022-09-09T12:30:28;19.40;99.90
9403;DHT22;4741;49.834;10.740;2022-09-09T12:33:08;19.20;99.90
9403;DHT22;4741;49.834;10.740;2022-09-09T12:35:36;19.20;99.90
9403;DHT22;4741;49.834;10.740;2022-09-09T12:38:05;19.30;99.90
9403;DHT22;4741;49.834;10.740;2022-09-09T12:40:33;19.30;99.90
9403;DHT22;4741;49.834;10.740;2022-09-09T12:43:02;20.40;99.90
9403;DHT22;4741;49.834;10.740;2022-09-09T12:45:42;20.60;99.90
9403;DHT22;4741;49.834;10.740;2022-09-09T12:48:09;20.20;99.90
9403;DHT22;4741;49.834;10.740;2022-09-09T12:50:46;20.90;99.90
9403;DHT22;4741;49.834;10.740;2022-09-09T12:56:01;19.70;99.90
9403;DHT22;4741;49.834;10.740;2022-09-09T12:58:29;20.00;99.90
9403;DHT22;4741;49.834;10.740;2022-09-09T13:00:59;21.80;99.90
9403;DHT22;4741;49.834;10.740;2022-09-09T13:03:26;22.70;99.90
9403;DHT22;4741;49.834;10.740;2022-09-09T13:05:53;24.50;99.90
9403;DHT22;4741;49.834;10.740;2022-09-09T13:08:20;26.20;99.90
9403;DHT22;4741;49.834;10.740;2022-09-09T13:10:51;26.80;99.90
9403;DHT22;4741;49.834;10.740;2022-09-09T13:13:33;27.10;99.90
9403;DHT22;4741;49.834;10.740;2022-09-09T13:20:55;28.10;99.90
9403;DHT22;4741;49.834;10.740;2022-09-09T13:25:54;27.30;99.90
9403;DHT22;4741;49.834;10.740;2022-09-09T13:28:23;27.90;99.90
9403;DHT22;4741;49.834;10.740;2022-09-09T13:38:13;28.00;96.50
9403;DHT22;4741;49.834;10.740;2022-09-09T13:40:40;28.00;99.90
9403;DHT22;4741;49.834;10.740;2022-09-09T13:43:20;27.20;99.30
9403;DHT22;4741;49.834;10.740;2022-09-09T13:48:17;27.40;99.90
9403;DHT22;4741;49.834;10.740;2022-09-09T13:50:53;26.80;99.90
9403;DHT22;4741;49.834;10.740;2022-09-09T13:55:47;26.10;97.00
9403;DHT22;4741;49.834;10.740;2022-09-09T14:00:45;26.20;99.90
9403;DHT22;4741;49.834;10.740;2022-09-09T14:03:12;26.30;99.90
9403;DHT22;4741;49.834;10.740;2022-09-09T14:05:40;27.10;99.90
9403;DHT22;4741;49.834;10.740;2022-09-09T14:10:33;26.20;99.90
9403;DHT22;4741;49.834;10.740;2022-09-09T14:17:57;24.60;99.90
9403;DHT22;4741;49.834;10.740;2022-09-09T14:20:25;24.00;98.10
9403;DHT22;4741;49.834;10.740;2022-09-09T14:22:51;23.90;98.60
9403;DHT22;4741;49.834;10.740;2022-09-09T14:25:19;23.70;98.80
9403;DHT22;4741;49.834;10.740;2022-09-09T14:32:40;23.20;99.90
9403;DHT22;4741;49.834;10.740;2022-09-09T14:37:34;23.00;99.90
9403;DHT22;4741;49.834;10.740;2022-09-09T14:47:23;22.60;99.90
9403;DHT22;4741;49.834;10.740;2022-09-09T14:52:17;22.10;99.90
9403;DHT22;4741;49.834;10.740;2022-09-09T14:54:43;22.40;99.90
9403;DHT22;4741;49.834;10.740;2022-09-09T14:59:37;21.70;99.90
9403;DHT22;4741;49.834;10.740;2022-09-09T15:02:04;21.60;99.90
9403;DHT22;4741;49.834;10.740;2022-09-09T15:04:31;21.70;99.90
9403;DHT22;4741;49.834;10.740;2022-09-09T15:14:19;23.30;99.90
9403;DHT22;4741;49.834;10.740;2022-09-09T15:19:17;25.60;98.40
9403;DHT22;4741;49.834;10.740;2022-09-09T15:21:44;25.40;98.90
9403;DHT22;4741;49.834;10.740;2022-09-09T15:24:10;25.80;99.90
9403;DHT22;4741;49.834;10.740;2022-09-09T15:26:37;26.20;99.90
9403;DHT22;4741;49.834;10.740;2022-09-09T15:29:05;25.10;99.80
9403;DHT22;4741;49.834;10.740;2022-09-09T15:31:32;23.20;99.90
9403;DHT22;4741;49.834;10.740;2022-09-09T15:33:59;23.90;99.90
9403;DHT22;4741;49.834;10.740;2022-09-09T15:38:56;22.00;99.90
9403;DHT22;4741;49.834;10.740;2022-09-09T15:41:23;22.30;99.90
9403;DHT22;4741;49.834;10.740;2022-09-09T15:43:50;21.80;99.90
9403;DHT22;4741;49.834;10.740;2022-09-09T15:46:22;21.80;99.90
9403;DHT22;4741;49.834;10.740;2022-09-09T15:48:58;21.50;99.90
9403;DHT22;4741;49.834;10.740;2022-09-09T15:51:28;21.40;99.90
9403;DHT22;4741;49.834;10.740;2022-09-09T15:54:09;23.10;99.90
9403;DHT22;4741;49.834;10.740;2022-09-09T15:56:36;22.70;99.90
9403;DHT22;4741;49.834;10.740;2022-09-09T15:59:03;22.60;99.90
9403;DHT22;4741;49.834;10.740;2022-09-09T16:01:30;22.90;99.90
9403;DHT22;4741;49.834;10.740;2022-09-09T16:03:57;23.60;99.90
9403;DHT22;4741;49.834;10.740;2022-09-09T16:09:13;24.10;99.90
9403;DHT22;4741;49.834;10.740;2022-09-09T16:11:39;23.60;99.90
9403;DHT22;4741;49.834;10.740;2022-09-09T16:14:06;23.80;99.90
9403;DHT22;4741;49.834;10.740;2022-09-09T16:16:34;22.30;99.90
9403;DHT22;4741;49.834;10.740;2022-09-09T16:21:36;21.50;99.90
9403;DHT22;4741;49.834;10.740;2022-09-09T16:24:04;21.50;99.90
9403;DHT22;4741;49.834;10.740;2022-09-09T16:26:32;21.30;99.90
9403;DHT22;4741;49.834;10.740;2022-09-09T16:28:59;21.60;99.90
9403;DHT22;4741;49.834;10.740;2022-09-09T16:31:26;21.40;99.90
9403;DHT22;4741;49.834;10.740;2022-09-09T16:33:54;20.80;99.90
9403;DHT22;4741;49.834;10.740;2022-09-09T16:38:47;20.60;99.90
9403;DHT22;4741;49.834;10.740;2022-09-09T16:41:14;21.00;99.90
9403;DHT22;4741;49.834;10.740;2022-09-09T16:43:41;20.70;99.90
9403;DHT22;4741;49.834;10.740;2022-09-09T16:46:11;20.20;99.90
9403;DHT22;4741;49.834;10.740;2022-09-09T16:48:38;20.20;99.90
9403;DHT22;4741;49.834;10.740;2022-09-09T16:51:06;20.20;99.90
9403;DHT22;4741;49.834;10.740;2022-09-09T16:53:33;20.00;99.90
9403;DHT22;4741;49.834;10.740;2022-09-09T16:56:06;20.00;99.90
9403;DHT22;4741;49.834;10.740;2022-09-09T16:58:33;19.90;99.90
9403;DHT22;4741;49.834;10.740;2022-09-09T17:01:00;19.80;99.90
9403;DHT22;4741;49.834;10.740;2022-09-09T17:03:28;19.80;99.90
9403;DHT22;4741;49.834;10.740;2022-09-09T17:05:55;19.70;99.90
9403;DHT22;4741;49.834;10.740;2022-09-09T17:08:24;19.70;99.90
9403;DHT22;4741;49.834;10.740;2022-09-09T17:10:50;19.40;99.90
9403;DHT22;4741;49.834;10.740;2022-09-09T17:13:17;19.40;99.90
9403;DHT22;4741;49.834;10.740;2022-09-09T17:15:45;19.40;99.90
9403;DHT22;4741;49.834;10.740;2022-09-09T17:20:39;19.40;99.90
9403;DHT22;4741;49.834;10.740;2022-09-09T17:23:12;19.20;99.90
9403;DHT22;4741;49.834;10.740;2022-09-09T17:25:41;19.20;99.90
9403;DHT22;4741;49.834;10.740;2022-09-09T17:28:09;19.10;99.90
9403;DHT22;4741;49.834;10.740;2022-09-09T17:30:36;19.20;99.90
9403;DHT22;4741;49.834;10.740;2022-09-09T17:33:03;19.10;99.90
9403;DHT22;4741;49.834;10.740;2022-09-09T17:35:30;19.00;99.90
9403;DHT22;4741;49.834;10.740;2022-09-09T17:37:58;19.10;99.90
9403;DHT22;4741;49.834;10.740;2022-09-09T17:40:25;20.50;99.90
9403;DHT22;4741;49.834;10.740;2022-09-09T17:42:51;18.70;99.90
9403;DHT22;4741;49.834;10.740;2022-09-09T17:45:18;19.60;99.90
9403;DHT22;4741;49.834;10.740;2022-09-09T17:47:45;18.50;99.90
9403;DHT22;4741;49.834;10.740;2022-09-09T17:50:12;18.40;99.90
9403;DHT22;4741;49.834;10.740;2022-09-09T17:52:39;18.20;99.90
9403;DHT22;4741;49.834;10.740;2022-09-09T17:55:07;19.20;99.90
9403;DHT22;4741;49.834;10.740;2022-09-09T17:57:35;18.50;99.90
9403;DHT22;4741;49.834;10.740;2022-09-09T18:00:03;18.40;99.90
9403;DHT22;4741;49.834;10.740;2022-09-09T18:02:30;18.30;99.90
9403;DHT22;4741;49.834;10.740;2022-09-09T18:04:56;17.90;99.90
9403;DHT22;4741;49.834;10.740;2022-09-09T18:07:23;17.80;99.90
9403;DHT22;4741;49.834;10.740;2022-09-09T18:09:50;17.80;99.90
9403;DHT22;4741;49.834;10.740;2022-09-09T18:12:16;17.70;99.90
9403;DHT22;4741;49.834;10.740;2022-09-09T18:14:43;17.60;99.90
9403;DHT22;4741;49.834;10.740;2022-09-09T18:17:09;17.60;99.90
9403;DHT22;4741;49.834;10.740;2022-09-09T18:19:36;17.90;99.90
9403;DHT22;4741;49.834;10.740;2022-09-09T18:22:03;17.30;99.90
9403;DHT22;4741;49.834;10.740;2022-09-09T18:24:30;17.30;99.90
9403;DHT22;4741;49.834;10.740;2022-09-09T18:26:57;17.30;99.90
9403;DHT22;4741;49.834;10.740;2022-09-09T18:31:52;17.30;99.90
9403;DHT22;4741;49.834;10.740;2022-09-09T18:34:19;17.20;99.90
9403;DHT22;4741;49.834;10.740;2022-09-09T18:36:47;17.30;99.90
9403;DHT22;4741;49.834;10.740;2022-09-09T18:39:15;16.90;99.90
9403;DHT22;4741;49.834;10.740;2022-09-09T18:41:44;16.80;99.90
9403;DHT22;4741;49.834;10.740;2022-09-09T18:44:12;17.00;99.90
9403;DHT22;4741;49.834;10.740;2022-09-09T18:46:39;17.50;99.90
9403;DHT22;4741;49.834;10.740;2022-09-09T18:49:06;16.90;99.90
9403;DHT22;4741;49.834;10.740;2022-09-09T18:51:33;17.00;99.90
9403;DHT22;4741;49.834;10.740;2022-09-09T18:54:04;16.90;99.90
9403;DHT22;4741;49.834;10.740;2022-09-09T18:56:33;16.70;99.90
9403;DHT22;4741;49.834;10.740;2022-09-09T18:59:01;16.50;99.90
9403;DHT22;4741;49.834;10.740;2022-09-09T19:01:28;16.80;99.90
9403;DHT22;4741;49.834;10.740;2022-09-09T19:06:25;16.30;99.90
9403;DHT22;4741;49.834;10.740;2022-09-09T19:08:51;16.10;99.90
9403;DHT22;4741;49.834;10.740;2022-09-09T19:11:22;16.10;99.90
9403;DHT22;4741;49.834;10.740;2022-09-09T19:13:50;16.20;99.90
9403;DHT22;4741;49.834;10.740;2022-09-09T19:16:17;16.20;99.90
9403;DHT22;4741;49.834;10.740;2022-09-09T19:18:44;15.80;99.90
9403;DHT22;4741;49.834;10.740;2022-09-09T19:23:40;15.80;99.90
9403;DHT22;4741;49.834;10.740;2022-09-09T19:26:07;15.80;99.90
9403;DHT22;4741;49.834;10.740;2022-09-09T19:28:34;15.30;99.90
9403;DHT22;4741;49.834;10.740;2022-09-09T19:31:04;15.70;99.90
9403;DHT22;4741;49.834;10.740;2022-09-09T19:33:31;15.80;99.90
9403;DHT22;4741;49.834;10.740;2022-09-09T19:35:59;15.50;99.90
9403;DHT22;4741;49.834;10.740;2022-09-09T19:38:28;15.50;99.90
9403;DHT22;4741;49.834;10.740;2022-09-09T19:40:55;15.60;99.90
9403;DHT22;4741;49.834;10.740;2022-09-09T19:43:23;15.60;99.90
9403;DHT22;4741;49.834;10.740;2022-09-09T19:48:17;15.60;99.90
9403;DHT22;4741;49.834;10.740;2022-09-09T19:50:44;15.90;99.90
9403;DHT22;4741;49.834;10.740;2022-09-09T19:53:11;16.10;99.90